sensor_id;sensor_type;location;lat;lon;timestamp;temperature;humidity
752;DHT22;360;48.764;9.164;2023-05-20T00:00:07;12.10;99.90
752;DHT22;360;48.764;9.164;2023-05-20T00:02:36;12.30;1.00
752;DHT22;360;48.764;9.164;2023-05-20T00:05:03;12.40;1.00
752;DHT22;360;48.764;9.164;2023-05-20T00:07:31;12.20;20.00
752;DHT22;360;48.764;9.164;2023-05-20T00:09:58;12.00;99.90
752;DHT22;360;48.764;9.164;2023-05-20T00:12:24;12.20;1.00
752;DHT22;360;48.764;9.164;2023-05-20T00:14:51;12.00;99.90
752;DHT22;360;48.764;9.164;2023-05-20T00:17:18;12.00;99.90
752;DHT22;360;48.764;9.164;2023-05-20T00:19:46;12.00;99.90
752;DHT22;360;48.764;9.164;2023-05-20T00:22:13;12.00;99.90
752;DHT22;360;48.764;9.164;2023-05-20T00:24:40;12.10;99.90
752;DHT22;360;48.764;9.164;2023-05-20T00:27:06;12.20;99.90
752;DHT22;360;48.764;9.164;2023-05-20T00:29:33;12.20;99.90
752;DHT22;360;48.764;9.164;2023-05-20T00:32:00;12.30;1.00
752;DHT22;360;48.764;9.164;2023-05-20T00:34:27;12.30;1.00
752;DHT22;360;48.764;9.164;2023-05-20T00:36:55;12.30;99.90
752;DHT22;360;48.764;9.164;2023-05-20T00:39:22;12.30;64.80
752;DHT22;360;48.764;9.164;2023-05-20T00:41:49;12.40;1.00
752;DHT22;360;48.764;9.164;2023-05-20T00:44:15;12.30;1.00
752;DHT22;360;48.764;9.164;2023-05-20T00:46:43;12.30;1.00
752;DHT22;360;48.764;9.164;2023-05-20T00:49:10;12.20;1.00
752;DHT22;360;48.764;9.164;2023-05-20T00:51:37;12.10;1.00
752;DHT22;360;48.764;9.164;2023-05-20T00:54:05;12.00;73.50
752;DHT22;360;48.764;9.164;2023-05-20T00:56:32;12.20;1.00
752;DHT22;360;48.764;9.164;2023-05-20T00:58:59;12.30;26.90
752;DHT22;360;48.764;9.164;2023-05-20T01:01:26;12.40;1.00
752;DHT22;360;48.764;9.164;2023-05-20T01:03:53;12.40;1.00
752;DHT22;360;48.764;9.164;2023-05-20T01:06:20;12.40;1.00
752;DHT22;360;48.764;9.164;2023-05-20T01:08:46;12.40;1.00
752;DHT22;360;48.764;9.164;2023-05-20T01:11:19;12.50;1.00
752;DHT22;360;48.764;9.164;2023-05-20T01:13:53;12.40;1.00
752;DHT22;360;48.764;9.164;2023-05-20T01:16:22;12.50;1.00
752;DHT22;360;48.764;9.164;2023-05-20T01:18:50;12.60;99.90
752;DHT22;360;48.764;9.164;2023-05-20T01:21:19;12.70;99.90
752;DHT22;360;48.764;9.164;2023-05-20T01:23:48;12.70;1.00
752;DHT22;360;48.764;9.164;2023-05-20T01:26:15;12.70;1.00
752;DHT22;360;48.764;9.164;2023-05-20T01:28:43;12.70;1.00
752;DHT22;360;48.764;9.164;2023-05-20T01:31:13;12.70;1.00
752;DHT22;360;48.764;9.164;2023-05-20T01:33:41;12.60;1.00
752;DHT22;360;48.764;9.164;2023-05-20T01:36:09;12.70;99.90
752;DHT22;360;48.764;9.164;2023-05-20T01:38:37;12.70;1.00
752;DHT22;360;48.764;9.164;2023-05-20T01:41:07;12.60;1.00
752;DHT22;360;48.764;9.164;2023-05-20T01:43:34;12.70;1.00
752;DHT22;360;48.764;9.164;2023-05-20T01:46:04;12.60;99.90
752;DHT22;360;48.764;9.164;2023-05-20T01:48:31;12.60;1.00
752;DHT22;360;48.764;9.164;2023-05-20T01:50:59;12.60;1.00
752;DHT22;360;48.764;9.164;2023-05-20T01:53:25;12.60;1.00
752;DHT22;360;48.764;9.164;2023-05-20T01:55:52;12.70;1.00
752;DHT22;360;48.764;9.164;2023-05-20T01:58:20;12.70;99.90
752;DHT22;360;48.764;9.164;2023-05-20T02:00:47;12.70;1.00
752;DHT22;360;48.764;9.164;2023-05-20T02:03:14;12.80;99.90
752;DHT22;360;48.764;9.164;2023-05-20T02:05:41;12.80;99.90
752;DHT22;360;48.764;9.164;2023-05-20T02:08:08;12.80;99.90
752;DHT22;360;48.764;9.164;2023-05-20T02:10:35;12.80;99.90
752;DHT22;360;48.764;9.164;2023-05-20T02:13:01;12.70;1.00
752;DHT22;360;48.764;9.164;2023-05-20T02:15:30;12.70;1.00
752;DHT22;360;48.764;9.164;2023-05-20T02:17:56;12.70;1.00
752;DHT22;360;48.764;9.164;2023-05-20T02:20:23;12.70;1.00
752;DHT22;360;48.764;9.164;2023-05-20T02:22:50;12.60;52.80
752;DHT22;360;48.764;9.164;2023-05-20T02:25:17;12.70;1.00
752;DHT22;360;48.764;9.164;2023-05-20T02:27:43;12.70;1.00
752;DHT22;360;48.764;9.164;2023-05-20T02:30:11;12.80;1.00
752;DHT22;360;48.764;9.164;2023-05-20T02:32:39;12.80;1.00
752;DHT22;360;48.764;9.164;2023-05-20T02:35:07;12.90;99.90
752;DHT22;360;48.764;9.164;2023-05-20T02:37:34;12.90;1.00
752;DHT22;360;48.764;9.164;2023-05-20T02:40:00;12.90;27.50
752;DHT22;360;48.764;9.164;2023-05-20T02:42:27;12.90;99.90
752;DHT22;360;48.764;9.164;2023-05-20T02:44:54;12.90;99.90
752;DHT22;360;48.764;9.164;2023-05-20T02:47:23;12.90;99.90
752;DHT22;360;48.764;9.164;2023-05-20T02:49:51;12.90;1.00
752;DHT22;360;48.764;9.164;2023-05-20T02:52:18;12.90;1.00
752;DHT22;360;48.764;9.164;2023-05-20T02:54:46;13.00;99.90
752;DHT22;360;48.764;9.164;2023-05-20T02:57:13;13.00;1.00
752;DHT22;360;48.764;9.164;2023-05-20T02:59:40;13.00;1.00
752;DHT22;360;48.764;9.164;2023-05-20T03:02:07;12.90;1.70
752;DHT22;360;48.764;9.164;2023-05-20T03:04:34;12.90;10.10
752;DHT22;360;48.764;9.164;2023-05-20T03:07:04;12.90;1.00
752;DHT22;360;48.764;9.164;2023-05-20T03:09:31;12.90;1.00
752;DHT22;360;48.764;9.164;2023-05-20T03:11:58;12.90;99.90
752;DHT22;360;48.764;9.164;2023-05-20T03:14:25;12.90;99.90
752;DHT22;360;48.764;9.164;2023-05-20T03:16:52;12.80;99.90
752;DHT22;360;48.764;9.164;2023-05-20T03:19:20;12.80;1.00
752;DHT22;360;48.764;9.164;2023-05-20T03:21:47;12.80;1.00
752;DHT22;360;48.764;9.164;2023-05-20T03:24:16;12.80;1.00
752;DHT22;360;48.764;9.164;2023-05-20T03:26:43;12.80;99.90
752;DHT22;360;48.764;9.164;2023-05-20T03:29:11;12.80;1.00
752;DHT22;360;48.764;9.164;2023-05-20T03:31:38;12.80;1.00
752;DHT22;360;48.764;9.164;2023-05-20T03:34:06;12.80;1.00
752;DHT22;360;48.764;9.164;2023-05-20T03:36:33;12.80;1.00
752;DHT22;360;48.764;9.164;2023-05-20T03:39:00;12.70;1.00
752;DHT22;360;48.764;9.164;2023-05-20T03:41:30;12.70;1.00
752;DHT22;360;48.764;9.164;2023-05-20T03:43:57;12.60;1.00
752;DHT22;360;48.764;9.164;2023-05-20T03:46:24;12.60;87.30
752;DHT22;360;48.764;9.164;2023-05-20T03:48:50;12.60;99.90
752;DHT22;360;48.764;9.164;2023-05-20T03:51:17;12.60;99.90
752;DHT22;360;48.764;9.164;2023-05-20T03:53:44;12.60;99.90
752;DHT22;360;48.764;9.164;2023-05-20T03:56:11;12.60;99.90
752;DHT22;360;48.764;9.164;2023-05-20T03:58:39;12.50;99.90
752;DHT22;360;48.764;9.164;2023-05-20T04:01:06;12.60;99.90
752;DHT22;360;48.764;9.164;2023-05-20T04:03:33;12.50;99.90
752;DHT22;360;48.764;9.164;2023-05-20T04:06:00;12.60;99.90
752;DHT22;360;48.764;9.164;2023-05-20T04:08:26;12.60;99.90
752;DHT22;360;48.764;9.164;2023-05-20T04:10:55;12.70;99.90
752;DHT22;360;48.764;9.164;2023-05-20T04:13:23;12.80;78.50
752;DHT22;360;48.764;9.164;2023-05-20T04:15:51;12.80;85.00
752;DHT22;360;48.764;9.164;2023-05-20T04:18:18;12.90;1.00
752;DHT22;360;48.764;9.164;2023-05-20T04:20:45;13.00;1.00
752;DHT22;360;48.764;9.164;2023-05-20T04:23:12;13.00;1.00
752;DHT22;360;48.764;9.164;2023-05-20T04:25:39;13.10;99.90
752;DHT22;360;48.764;9.164;2023-05-20T04:28:06;13.10;1.00
752;DHT22;360;48.764;9.164;2023-05-20T04:30:35;13.10;99.90
752;DHT22;360;48.764;9.164;2023-05-20T04:33:03;13.20;1.00
752;DHT22;360;48.764;9.164;2023-05-20T04:35:30;13.20;1.00
752;DHT22;360;48.764;9.164;2023-05-20T04:37:59;13.20;1.00
752;DHT22;360;48.764;9.164;2023-05-20T04:40:26;13.30;99.90
752;DHT22;360;48.764;9.164;2023-05-20T04:42:53;13.30;99.90
752;DHT22;360;48.764;9.164;2023-05-20T04:45:20;13.20;99.90
752;DHT22;360;48.764;9.164;2023-05-20T04:47:47;13.20;99.90
752;DHT22;360;48.764;9.164;2023-05-20T04:50:16;13.20;99.90
752;DHT22;360;48.764;9.164;2023-05-20T04:52:43;13.30;99.90
752;DHT22;360;48.764;9.164;2023-05-20T04:55:11;13.30;99.90
752;DHT22;360;48.764;9.164;2023-05-20T04:57:39;13.30;99.90
752;DHT22;360;48.764;9.164;2023-05-20T05:00:07;13.40;83.50
752;DHT22;360;48.764;9.164;2023-05-20T05:02:34;13.40;1.00
752;DHT22;360;48.764;9.164;2023-05-20T05:05:01;13.50;99.90
752;DHT22;360;48.764;9.164;2023-05-20T05:07:29;13.50;1.00
752;DHT22;360;48.764;9.164;2023-05-20T05:09:56;13.60;99.90
752;DHT22;360;48.764;9.164;2023-05-20T05:12:23;13.70;34.50
752;DHT22;360;48.764;9.164;2023-05-20T05:14:51;13.70;1.00
752;DHT22;360;48.764;9.164;2023-05-20T05:17:17;13.70;99.90
752;DHT22;360;48.764;9.164;2023-05-20T05:19:44;13.70;99.90
752;DHT22;360;48.764;9.164;2023-05-20T05:22:11;13.80;1.00
752;DHT22;360;48.764;9.164;2023-05-20T05:24:39;13.80;99.90
752;DHT22;360;48.764;9.164;2023-05-20T05:27:06;13.80;1.00
752;DHT22;360;48.764;9.164;2023-05-20T05:29:33;13.90;99.90
752;DHT22;360;48.764;9.164;2023-05-20T05:31:59;13.90;51.40
752;DHT22;360;48.764;9.164;2023-05-20T05:34:26;14.00;1.00
752;DHT22;360;48.764;9.164;2023-05-20T05:36:53;14.00;99.90
752;DHT22;360;48.764;9.164;2023-05-20T05:39:20;14.10;99.90
752;DHT22;360;48.764;9.164;2023-05-20T05:41:48;14.10;99.90
752;DHT22;360;48.764;9.164;2023-05-20T05:44:15;14.20;1.00
752;DHT22;360;48.764;9.164;2023-05-20T05:46:42;14.20;39.40
752;DHT22;360;48.764;9.164;2023-05-20T05:49:09;14.20;1.00
752;DHT22;360;48.764;9.164;2023-05-20T05:51:36;14.30;1.00
752;DHT22;360;48.764;9.164;2023-05-20T05:54:02;14.40;99.90
752;DHT22;360;48.764;9.164;2023-05-20T05:56:29;14.50;99.90
752;DHT22;360;48.764;9.164;2023-05-20T05:58:57;14.60;44.30
752;DHT22;360;48.764;9.164;2023-05-20T06:01:24;14.60;2.10
752;DHT22;360;48.764;9.164;2023-05-20T06:03:51;14.60;26.50
752;DHT22;360;48.764;9.164;2023-05-20T06:06:18;14.60;99.90
752;DHT22;360;48.764;9.164;2023-05-20T06:08:45;14.70;27.80
752;DHT22;360;48.764;9.164;2023-05-20T06:11:11;14.70;1.00
752;DHT22;360;48.764;9.164;2023-05-20T06:13:38;14.80;1.00
752;DHT22;360;48.764;9.164;2023-05-20T06:16:07;14.80;1.00
752;DHT22;360;48.764;9.164;2023-05-20T06:18:33;14.90;1.00
752;DHT22;360;48.764;9.164;2023-05-20T06:21:02;14.90;1.00
752;DHT22;360;48.764;9.164;2023-05-20T06:23:29;15.00;1.00
752;DHT22;360;48.764;9.164;2023-05-20T06:25:57;15.00;1.00
752;DHT22;360;48.764;9.164;2023-05-20T06:28:24;15.10;1.00
752;DHT22;360;48.764;9.164;2023-05-20T06:30:52;15.10;1.00
752;DHT22;360;48.764;9.164;2023-05-20T06:33:23;15.10;1.00
752;DHT22;360;48.764;9.164;2023-05-20T06:35:51;15.20;99.90
752;DHT22;360;48.764;9.164;2023-05-20T06:38:17;15.30;99.90
752;DHT22;360;48.764;9.164;2023-05-20T06:40:44;15.40;99.90
752;DHT22;360;48.764;9.164;2023-05-20T06:43:11;15.40;99.90
752;DHT22;360;48.764;9.164;2023-05-20T06:45:38;15.50;99.90
752;DHT22;360;48.764;9.164;2023-05-20T06:48:05;15.40;99.90
752;DHT22;360;48.764;9.164;2023-05-20T06:50:34;15.40;99.90
752;DHT22;360;48.764;9.164;2023-05-20T06:53:00;15.50;99.90
752;DHT22;360;48.764;9.164;2023-05-20T06:55:29;15.60;46.70
752;DHT22;360;48.764;9.164;2023-05-20T06:57:56;15.60;99.90
752;DHT22;360;48.764;9.164;2023-05-20T07:00:23;15.70;99.90
752;DHT22;360;48.764;9.164;2023-05-20T07:02:49;15.70;62.30
752;DHT22;360;48.764;9.164;2023-05-20T07:05:16;15.90;1.00
752;DHT22;360;48.764;9.164;2023-05-20T07:07:44;15.90;1.00
752;DHT22;360;48.764;9.164;2023-05-20T07:10:11;16.00;1.00
752;DHT22;360;48.764;9.164;2023-05-20T07:12:39;16.00;1.00
752;DHT22;360;48.764;9.164;2023-05-20T07:15:06;16.10;1.00
752;DHT22;360;48.764;9.164;2023-05-20T07:17:33;16.20;99.90
752;DHT22;360;48.764;9.164;2023-05-20T07:20:00;16.20;99.90
752;DHT22;360;48.764;9.164;2023-05-20T07:22:28;16.30;99.90
752;DHT22;360;48.764;9.164;2023-05-20T07:24:57;16.30;99.90
752;DHT22;360;48.764;9.164;2023-05-20T07:27:23;16.20;99.90
752;DHT22;360;48.764;9.164;2023-05-20T07:29:50;16.30;99.90
752;DHT22;360;48.764;9.164;2023-05-20T07:32:17;16.20;99.90
752;DHT22;360;48.764;9.164;2023-05-20T07:34:44;16.30;99.90
752;DHT22;360;48.764;9.164;2023-05-20T07:37:11;16.40;99.90
752;DHT22;360;48.764;9.164;2023-05-20T07:39:37;16.40;99.90
752;DHT22;360;48.764;9.164;2023-05-20T07:42:06;16.40;99.90
752;DHT22;360;48.764;9.164;2023-05-20T07:44:33;16.40;99.90
752;DHT22;360;48.764;9.164;2023-05-20T07:46:59;16.30;99.90
752;DHT22;360;48.764;9.164;2023-05-20T07:49:26;16.20;99.90
752;DHT22;360;48.764;9.164;2023-05-20T07:51:53;16.10;99.90
752;DHT22;360;48.764;9.164;2023-05-20T07:54:20;16.20;99.90
752;DHT22;360;48.764;9.164;2023-05-20T07:56:47;16.20;99.90
752;DHT22;360;48.764;9.164;2023-05-20T07:59:15;16.30;99.90
752;DHT22;360;48.764;9.164;2023-05-20T08:01:41;16.50;99.90
752;DHT22;360;48.764;9.164;2023-05-20T08:04:08;16.60;99.90
752;DHT22;360;48.764;9.164;2023-05-20T08:06:35;16.60;99.90
752;DHT22;360;48.764;9.164;2023-05-20T08:09:03;16.70;99.90
752;DHT22;360;48.764;9.164;2023-05-20T08:11:29;16.80;99.90
752;DHT22;360;48.764;9.164;2023-05-20T08:16:25;17.00;77.80
752;DHT22;360;48.764;9.164;2023-05-20T08:18:52;17.40;1.00
752;DHT22;360;48.764;9.164;2023-05-20T08:21:19;17.40;1.00
752;DHT22;360;48.764;9.164;2023-05-20T08:23:46;17.50;1.00
752;DHT22;360;48.764;9.164;2023-05-20T08:26:12;17.50;1.00
752;DHT22;360;48.764;9.164;2023-05-20T08:28:39;17.50;1.00
752;DHT22;360;48.764;9.164;2023-05-20T08:31:06;17.60;1.00
752;DHT22;360;48.764;9.164;2023-05-20T08:33:34;17.60;1.00
752;DHT22;360;48.764;9.164;2023-05-20T08:36:01;17.50;1.00
752;DHT22;360;48.764;9.164;2023-05-20T08:38:28;17.60;1.00
752;DHT22;360;48.764;9.164;2023-05-20T08:40:55;17.70;1.00
752;DHT22;360;48.764;9.164;2023-05-20T08:43:23;17.80;1.00
752;DHT22;360;48.764;9.164;2023-05-20T08:45:50;17.80;1.00
752;DHT22;360;48.764;9.164;2023-05-20T08:48:18;17.80;1.00
752;DHT22;360;48.764;9.164;2023-05-20T08:50:49;17.80;1.00
752;DHT22;360;48.764;9.164;2023-05-20T08:53:16;18.00;1.00
752;DHT22;360;48.764;9.164;2023-05-20T08:55:47;18.10;1.00
752;DHT22;360;48.764;9.164;2023-05-20T08:58:14;18.20;1.00
752;DHT22;360;48.764;9.164;2023-05-20T09:00:43;18.30;1.00
752;DHT22;360;48.764;9.164;2023-05-20T09:03:10;18.40;1.00
752;DHT22;360;48.764;9.164;2023-05-20T09:05:37;18.30;1.00
752;DHT22;360;48.764;9.164;2023-05-20T09:08:07;18.30;1.00
752;DHT22;360;48.764;9.164;2023-05-20T09:10:34;18.30;1.00
752;DHT22;360;48.764;9.164;2023-05-20T09:13:02;18.40;1.00
752;DHT22;360;48.764;9.164;2023-05-20T09:15:30;18.40;1.00
752;DHT22;360;48.764;9.164;2023-05-20T09:17:59;18.50;1.00
752;DHT22;360;48.764;9.164;2023-05-20T09:20:26;18.60;99.90
752;DHT22;360;48.764;9.164;2023-05-20T09:22:58;18.60;99.90
752;DHT22;360;48.764;9.164;2023-05-20T09:25:27;18.50;99.90
752;DHT22;360;48.764;9.164;2023-05-20T09:27:54;18.60;99.90
752;DHT22;360;48.764;9.164;2023-05-20T09:30:21;18.90;99.90
752;DHT22;360;48.764;9.164;2023-05-20T09:32:52;19.10;99.90
752;DHT22;360;48.764;9.164;2023-05-20T09:35:20;19.20;99.90
752;DHT22;360;48.764;9.164;2023-05-20T09:37:47;19.30;99.90
752;DHT22;360;48.764;9.164;2023-05-20T09:40:17;19.50;99.90
752;DHT22;360;48.764;9.164;2023-05-20T09:42:52;19.40;99.90
752;DHT22;360;48.764;9.164;2023-05-20T09:45:19;19.40;99.90
752;DHT22;360;48.764;9.164;2023-05-20T09:47:49;19.50;99.90
752;DHT22;360;48.764;9.164;2023-05-20T09:50:17;19.80;99.90
752;DHT22;360;48.764;9.164;2023-05-20T09:52:46;19.50;99.90
752;DHT22;360;48.764;9.164;2023-05-20T09:55:13;19.30;99.90
752;DHT22;360;48.764;9.164;2023-05-20T09:57:41;19.50;99.90
752;DHT22;360;48.764;9.164;2023-05-20T10:00:10;19.40;99.90
752;DHT22;360;48.764;9.164;2023-05-20T10:02:41;19.60;99.90
752;DHT22;360;48.764;9.164;2023-05-20T10:05:14;19.70;99.90
752;DHT22;360;48.764;9.164;2023-05-20T10:10:42;19.90;99.90
752;DHT22;360;48.764;9.164;2023-05-20T10:13:18;20.00;99.90
752;DHT22;360;48.764;9.164;2023-05-20T10:16:12;20.00;99.90
752;DHT22;360;48.764;9.164;2023-05-20T10:18:59;20.20;99.90
752;DHT22;360;48.764;9.164;2023-05-20T10:21:29;20.40;99.90
752;DHT22;360;48.764;9.164;2023-05-20T10:24:04;20.70;99.90
752;DHT22;360;48.764;9.164;2023-05-20T10:26:34;20.50;99.90
752;DHT22;360;48.764;9.164;2023-05-20T10:29:04;20.60;99.90
752;DHT22;360;48.764;9.164;2023-05-20T10:31:47;20.60;99.90
752;DHT22;360;48.764;9.164;2023-05-20T10:34:15;20.80;99.90
752;DHT22;360;48.764;9.164;2023-05-20T10:36:45;20.80;99.90
752;DHT22;360;48.764;9.164;2023-05-20T10:39:15;20.60;99.90
752;DHT22;360;48.764;9.164;2023-05-20T10:41:42;20.70;99.90
752;DHT22;360;48.764;9.164;2023-05-20T10:44:09;20.90;99.90
752;DHT22;360;48.764;9.164;2023-05-20T10:46:36;21.00;99.90
752;DHT22;360;48.764;9.164;2023-05-20T10:49:05;21.10;99.90
752;DHT22;360;48.764;9.164;2023-05-20T10:51:43;21.10;99.90
752;DHT22;360;48.764;9.164;2023-05-20T10:54:12;21.20;99.90
752;DHT22;360;48.764;9.164;2023-05-20T10:56:49;21.60;99.90
752;DHT22;360;48.764;9.164;2023-05-20T10:59:17;21.30;99.90
752;DHT22;360;48.764;9.164;2023-05-20T11:01:45;21.30;99.90
752;DHT22;360;48.764;9.164;2023-05-20T11:04:14;21.10;99.90
752;DHT22;360;48.764;9.164;2023-05-20T11:06:49;21.40;99.90
752;DHT22;360;48.764;9.164;2023-05-20T11:09:16;21.30;99.90
752;DHT22;360;48.764;9.164;2023-05-20T11:11:43;21.50;99.90
752;DHT22;360;48.764;9.164;2023-05-20T11:14:10;21.80;99.90
752;DHT22;360;48.764;9.164;2023-05-20T11:16:39;21.90;99.90
752;DHT22;360;48.764;9.164;2023-05-20T11:19:06;22.10;99.90
752;DHT22;360;48.764;9.164;2023-05-20T11:21:41;22.20;99.90
752;DHT22;360;48.764;9.164;2023-05-20T11:24:08;22.30;99.90
752;DHT22;360;48.764;9.164;2023-05-20T11:26:35;22.30;99.90
752;DHT22;360;48.764;9.164;2023-05-20T11:29:03;22.50;99.90
752;DHT22;360;48.764;9.164;2023-05-20T12:16:00;22.80;99.90
752;DHT22;360;48.764;9.164;2023-05-20T12:18:28;24.50;50.20
752;DHT22;360;48.764;9.164;2023-05-20T12:20:55;24.70;41.80
752;DHT22;360;48.764;9.164;2023-05-20T12:23:22;24.60;36.20
752;DHT22;360;48.764;9.164;2023-05-20T12:25:49;24.30;35.00
752;DHT22;360;48.764;9.164;2023-05-20T12:28:16;23.90;34.30
752;DHT22;360;48.764;9.164;2023-05-20T12:30:44;23.80;35.20
752;DHT22;360;48.764;9.164;2023-05-20T12:33:11;23.60;36.50
752;DHT22;360;48.764;9.164;2023-05-20T12:35:39;23.30;39.60
752;DHT22;360;48.764;9.164;2023-05-20T12:38:06;23.50;38.60
752;DHT22;360;48.764;9.164;2023-05-20T12:40:34;23.70;37.00
752;DHT22;360;48.764;9.164;2023-05-20T12:43:01;23.70;34.60
752;DHT22;360;48.764;9.164;2023-05-20T12:45:28;23.90;32.90
752;DHT22;360;48.764;9.164;2023-05-20T12:47:57;23.90;33.20
752;DHT22;360;48.764;9.164;2023-05-20T12:50:24;24.40;29.20
752;DHT22;360;48.764;9.164;2023-05-20T12:52:51;24.20;27.90
752;DHT22;360;48.764;9.164;2023-05-20T12:55:17;24.10;37.70
752;DHT22;360;48.764;9.164;2023-05-20T12:57:45;24.00;27.70
752;DHT22;360;48.764;9.164;2023-05-20T13:00:13;24.20;27.60
752;DHT22;360;48.764;9.164;2023-05-20T13:02:41;24.20;26.60
752;DHT22;360;48.764;9.164;2023-05-20T13:05:09;24.20;25.10
752;DHT22;360;48.764;9.164;2023-05-20T13:07:37;24.10;23.70
752;DHT22;360;48.764;9.164;2023-05-20T13:10:05;24.10;23.40
752;DHT22;360;48.764;9.164;2023-05-20T13:12:32;23.70;22.10
752;DHT22;360;48.764;9.164;2023-05-20T13:14:59;23.70;22.30
752;DHT22;360;48.764;9.164;2023-05-20T13:17:26;23.80;20.90
752;DHT22;360;48.764;9.164;2023-05-20T13:19:53;24.40;18.70
752;DHT22;360;48.764;9.164;2023-05-20T13:22:22;24.40;13.10
752;DHT22;360;48.764;9.164;2023-05-20T13:24:48;24.40;11.20
752;DHT22;360;48.764;9.164;2023-05-20T13:27:15;24.30;10.00
752;DHT22;360;48.764;9.164;2023-05-20T13:29:42;24.50;9.30
752;DHT22;360;48.764;9.164;2023-05-20T13:32:09;24.60;8.50
752;DHT22;360;48.764;9.164;2023-05-20T13:34:36;24.90;7.80
752;DHT22;360;48.764;9.164;2023-05-20T13:37:03;25.20;5.10
752;DHT22;360;48.764;9.164;2023-05-20T13:39:31;25.20;2.80
752;DHT22;360;48.764;9.164;2023-05-20T13:41:58;25.30;1.00
752;DHT22;360;48.764;9.164;2023-05-20T13:44:25;25.40;1.00
752;DHT22;360;48.764;9.164;2023-05-20T13:46:52;25.40;1.00
752;DHT22;360;48.764;9.164;2023-05-20T13:49:19;25.20;1.00
752;DHT22;360;48.764;9.164;2023-05-20T13:51:46;24.90;1.00
752;DHT22;360;48.764;9.164;2023-05-20T13:54:12;24.50;1.00
752;DHT22;360;48.764;9.164;2023-05-20T13:56:41;24.40;1.00
752;DHT22;360;48.764;9.164;2023-05-20T13:59:07;24.40;1.00
752;DHT22;360;48.764;9.164;2023-05-20T14:01:34;24.10;1.00
752;DHT22;360;48.764;9.164;2023-05-20T14:04:01;24.10;1.00
752;DHT22;360;48.764;9.164;2023-05-20T14:06:28;23.90;1.00
752;DHT22;360;48.764;9.164;2023-05-20T14:08:56;24.10;1.00
752;DHT22;360;48.764;9.164;2023-05-20T14:11:23;24.20;1.00
752;DHT22;360;48.764;9.164;2023-05-20T14:13:51;24.20;1.00
752;DHT22;360;48.764;9.164;2023-05-20T14:16:18;24.10;1.00
752;DHT22;360;48.764;9.164;2023-05-20T14:18:45;24.10;1.00
752;DHT22;360;48.764;9.164;2023-05-20T14:21:11;24.50;1.00
752;DHT22;360;48.764;9.164;2023-05-20T14:23:39;24.70;1.00
752;DHT22;360;48.764;9.164;2023-05-20T14:26:08;24.40;1.00
752;DHT22;360;48.764;9.164;2023-05-20T14:28:35;24.60;1.00
752;DHT22;360;48.764;9.164;2023-05-20T15:07:54;24.80;1.00
752;DHT22;360;48.764;9.164;2023-05-20T15:10:21;25.20;1.00
752;DHT22;360;48.764;9.164;2023-05-20T15:12:48;25.50;1.00
752;DHT22;360;48.764;9.164;2023-05-20T15:15:15;25.30;1.00
752;DHT22;360;48.764;9.164;2023-05-20T15:17:42;25.10;1.00
752;DHT22;360;48.764;9.164;2023-05-20T15:20:10;24.90;1.00
752;DHT22;360;48.764;9.164;2023-05-20T15:22:38;24.80;1.00
752;DHT22;360;48.764;9.164;2023-05-20T15:25:08;24.90;1.00
752;DHT22;360;48.764;9.164;2023-05-20T15:27:35;24.70;1.00
752;DHT22;360;48.764;9.164;2023-05-20T15:30:02;25.10;1.00
752;DHT22;360;48.764;9.164;2023-05-20T15:32:29;25.00;1.00
752;DHT22;360;48.764;9.164;2023-05-20T15:37:23;25.70;1.00
752;DHT22;360;48.764;9.164;2023-05-20T15:39:51;27.60;1.00
752;DHT22;360;48.764;9.164;2023-05-20T15:42:17;27.80;1.00
752;DHT22;360;48.764;9.164;2023-05-20T15:44:46;27.00;1.00
752;DHT22;360;48.764;9.164;2023-05-20T15:47:12;26.50;1.00
752;DHT22;360;48.764;9.164;2023-05-20T16:11:45;26.20;1.00
752;DHT22;360;48.764;9.164;2023-05-20T16:14:13;31.20;1.00
752;DHT22;360;48.764;9.164;2023-05-20T16:16:40;31.20;1.00
752;DHT22;360;48.764;9.164;2023-05-20T16:19:07;30.20;1.00
752;DHT22;360;48.764;9.164;2023-05-20T16:21:33;30.10;1.00
752;DHT22;360;48.764;9.164;2023-05-20T16:24:00;30.00;1.00
752;DHT22;360;48.764;9.164;2023-05-20T16:26:28;29.90;1.00
752;DHT22;360;48.764;9.164;2023-05-20T16:28:55;30.30;1.00
752;DHT22;360;48.764;9.164;2023-05-20T16:31:24;29.70;1.00
752;DHT22;360;48.764;9.164;2023-05-20T16:33:51;29.70;1.00
752;DHT22;360;48.764;9.164;2023-05-20T16:36:18;30.40;1.00
752;DHT22;360;48.764;9.164;2023-05-20T16:38:46;28.90;1.00
752;DHT22;360;48.764;9.164;2023-05-20T16:41:12;28.40;1.00
752;DHT22;360;48.764;9.164;2023-05-20T16:43:39;27.90;1.00
752;DHT22;360;48.764;9.164;2023-05-20T16:46:06;27.30;1.00
752;DHT22;360;48.764;9.164;2023-05-20T16:48:34;26.60;1.00
752;DHT22;360;48.764;9.164;2023-05-20T16:51:01;26.30;1.00
752;DHT22;360;48.764;9.164;2023-05-20T16:53:28;26.00;1.00
752;DHT22;360;48.764;9.164;2023-05-20T16:55:54;25.70;1.00
752;DHT22;360;48.764;9.164;2023-05-20T16:58:21;25.50;1.00
752;DHT22;360;48.764;9.164;2023-05-20T17:00:48;25.20;1.00
752;DHT22;360;48.764;9.164;2023-05-20T17:03:15;25.00;1.00
752;DHT22;360;48.764;9.164;2023-05-20T17:05:43;24.70;1.00
752;DHT22;360;48.764;9.164;2023-05-20T17:08:10;24.70;1.00
752;DHT22;360;48.764;9.164;2023-05-20T17:10:37;24.70;1.00
752;DHT22;360;48.764;9.164;2023-05-20T17:13:04;24.70;1.00
752;DHT22;360;48.764;9.164;2023-05-20T17:15:31;24.70;1.00
752;DHT22;360;48.764;9.164;2023-05-20T17:18:01;24.90;1.00
752;DHT22;360;48.764;9.164;2023-05-20T17:20:28;24.70;1.00
752;DHT22;360;48.764;9.164;2023-05-20T17:22:56;24.40;1.00
752;DHT22;360;48.764;9.164;2023-05-20T17:25:23;24.30;1.00
752;DHT22;360;48.764;9.164;2023-05-20T17:27:50;24.00;1.00
752;DHT22;360;48.764;9.164;2023-05-20T17:30:16;23.70;1.00
752;DHT22;360;48.764;9.164;2023-05-20T17:32:43;23.70;1.00
752;DHT22;360;48.764;9.164;2023-05-20T17:35:10;23.60;1.00
752;DHT22;360;48.764;9.164;2023-05-20T17:37:37;23.50;1.00
752;DHT22;360;48.764;9.164;2023-05-20T17:40:06;23.40;1.00
752;DHT22;360;48.764;9.164;2023-05-20T17:42:33;23.40;1.00
752;DHT22;360;48.764;9.164;2023-05-20T17:45:00;23.20;1.00
752;DHT22;360;48.764;9.164;2023-05-20T17:47:26;23.20;1.00
752;DHT22;360;48.764;9.164;2023-05-20T17:49:53;23.10;1.00
752;DHT22;360;48.764;9.164;2023-05-20T17:52:20;23.10;1.00
752;DHT22;360;48.764;9.164;2023-05-20T17:54:47;23.10;1.00
752;DHT22;360;48.764;9.164;2023-05-20T17:57:15;23.10;1.00
752;DHT22;360;48.764;9.164;2023-05-20T17:59:42;23.10;7.00
752;DHT22;360;48.764;9.164;2023-05-20T18:02:09;22.90;1.00
752;DHT22;360;48.764;9.164;2023-05-20T18:04:36;22.80;4.30
752;DHT22;360;48.764;9.164;2023-05-20T18:07:03;22.80;7.10
752;DHT22;360;48.764;9.164;2023-05-20T18:09:31;22.70;9.60
752;DHT22;360;48.764;9.164;2023-05-20T18:11:58;22.70;12.80
752;DHT22;360;48.764;9.164;2023-05-20T18:14:26;22.50;18.90
752;DHT22;360;48.764;9.164;2023-05-20T18:16:53;22.30;25.30
752;DHT22;360;48.764;9.164;2023-05-20T18:19:21;22.30;35.50
752;DHT22;360;48.764;9.164;2023-05-20T18:21:48;22.30;37.90
752;DHT22;360;48.764;9.164;2023-05-20T18:24:15;22.20;41.10
752;DHT22;360;48.764;9.164;2023-05-20T18:26:43;22.10;48.90
752;DHT22;360;48.764;9.164;2023-05-20T18:29:10;22.00;56.00
752;DHT22;360;48.764;9.164;2023-05-20T18:31:39;22.00;63.80
752;DHT22;360;48.764;9.164;2023-05-20T18:34:06;21.90;76.40
752;DHT22;360;48.764;9.164;2023-05-20T18:36:33;21.90;82.80